createdAt,value
2023-02-18T00:00:13.293Z,16.34
2023-02-18T00:03:04.492Z,14.95
2023-02-18T00:05:35.024Z,15.94
2023-02-18T00:08:06.093Z,16.25
2023-02-18T00:10:36.706Z,15.19
2023-02-18T00:13:07.888Z,15.48
2023-02-18T00:15:38.677Z,16.01
2023-02-18T00:18:09.915Z,14.99
2023-02-18T00:20:41.225Z,16.07
2023-02-18T00:23:12.725Z,16.21
2023-02-18T00:25:43.240Z,15.06
2023-02-18T00:28:14.802Z,15.30
2023-02-18T00:30:45.537Z,16.29
2023-02-18T00:33:16.775Z,16.02
2023-02-18T00:35:47.299Z,16.22
2023-02-18T00:38:19.826Z,15.07
2023-02-18T00:40:51.244Z,15.05
2023-02-18T00:43:22.675Z,16.34
2023-02-18T00:45:53.720Z,15.16
2023-02-18T00:48:25.295Z,15.61
2023-02-18T00:50:55.740Z,15.99
2023-02-18T00:53:27.341Z,14.96
2023-02-18T00:55:57.849Z,16.01
2023-02-18T00:58:29.736Z,14.98
2023-02-18T01:01:00.369Z,14.74
2023-02-18T01:03:31.886Z,15.77
2023-02-18T01:06:02.449Z,14.85
2023-02-18T01:08:33.652Z,15.34
2023-02-18T01:11:04.735Z,16.07
2023-02-18T01:13:36.501Z,14.78
2023-02-18T01:16:07.633Z,15.82
2023-02-18T01:18:40.423Z,16.34
2023-02-18T01:21:11.623Z,16.56
2023-02-18T01:23:43.520Z,15.11
2023-02-18T01:26:14.151Z,15.50
2023-02-18T01:28:45.554Z,15.58
2023-02-18T01:31:16.366Z,14.54
2023-02-18T01:33:47.790Z,15.23
2023-02-18T01:36:18.416Z,14.50
2023-02-18T01:38:49.871Z,14.71
2023-02-18T01:41:20.408Z,14.27
2023-02-18T01:44:06.280Z,13.31
2023-02-18T01:46:37.029Z,14.40
2023-02-18T01:49:10.139Z,13.24
2023-02-18T01:51:41.856Z,14.18
2023-02-18T01:54:14.885Z,13.96
2023-02-18T01:56:49.296Z,12.69
2023-02-18T01:59:22.761Z,13.55
2023-02-18T02:01:51.815Z,12.45
2023-02-18T02:04:23.608Z,12.63
2023-02-18T02:06:54.240Z,12.98
2023-02-18T02:09:29.206Z,11.96
2023-02-18T02:12:19.267Z,11.21
2023-02-18T02:15:01.407Z,10.81
2023-02-18T02:17:37.846Z,10.61
2023-02-18T02:20:27.823Z,10.54
2023-02-18T02:23:14.784Z,10.46
2023-02-18T02:25:55.503Z,11.41
2023-02-18T02:28:42.615Z,11.99
2023-02-18T02:31:27.339Z,11.21
2023-02-18T02:55:56.720Z,10.20
2023-02-18T02:58:26.522Z,10.14
2023-02-18T03:01:08.416Z,10.05
2023-02-18T03:03:56.662Z,9.99
2023-02-18T03:06:37.996Z,9.95
2023-02-18T03:09:12.026Z,9.94
2023-02-18T03:11:45.765Z,9.94
2023-02-18T03:14:20.694Z,9.93
2023-02-18T03:16:55.494Z,9.92
2023-02-18T03:19:30.705Z,9.91
2023-02-18T03:22:06.318Z,9.95
2023-02-18T03:24:39.199Z,9.92
2023-02-18T03:27:14.299Z,9.88
2023-02-18T03:29:46.845Z,9.81
2023-02-18T03:32:19.361Z,9.82
2023-02-18T03:34:52.626Z,11.27
2023-02-18T03:37:23.715Z,11.57
2023-02-18T03:39:57.823Z,11.00
2023-02-18T03:42:29.845Z,11.88
2023-02-18T03:45:00.729Z,12.31
2023-02-18T03:47:32.071Z,11.56
2023-02-18T03:50:03.011Z,11.84
2023-02-18T03:52:37.226Z,12.80
2023-02-18T03:55:10.422Z,11.66
2023-02-18T03:57:41.161Z,11.40
2023-02-18T04:00:13.259Z,11.29
2023-02-18T04:02:44.228Z,10.63
2023-02-18T04:05:15.389Z,10.07
2023-02-18T04:07:46.248Z,9.76
2023-02-18T04:10:16.981Z,9.55
2023-02-18T04:12:47.830Z,9.41
2023-02-18T04:15:18.662Z,9.80
2023-02-18T04:17:49.472Z,11.46
2023-02-18T04:20:20.744Z,11.38
2023-02-18T04:22:51.511Z,11.22
2023-02-18T04:25:22.422Z,12.46
2023-02-18T04:27:53.151Z,12.40
2023-02-18T04:30:24.695Z,11.41
2023-02-18T04:32:56.116Z,12.15
2023-02-18T04:35:26.960Z,12.98
2023-02-18T04:37:57.807Z,12.61
2023-02-18T04:40:30.976Z,11.30
2023-02-18T04:43:02.203Z,12.21
2023-02-18T04:45:33.671Z,12.57
2023-02-18T04:48:04.855Z,11.42
2023-02-18T04:50:35.669Z,10.39
2023-02-18T04:53:06.383Z,10.66
2023-02-18T04:55:37.632Z,11.44
2023-02-18T04:58:10.419Z,10.59
2023-02-18T05:00:41.136Z,9.97
2023-02-18T05:03:12.090Z,9.58
2023-02-18T05:05:43.126Z,9.38
2023-02-18T05:08:14.276Z,9.26
2023-02-18T05:10:47.377Z,9.18
2023-02-18T05:13:18.657Z,9.15
2023-02-18T05:15:49.677Z,9.12
2023-02-18T05:18:20.687Z,9.11
2023-02-18T05:20:51.436Z,9.12
2023-02-18T05:23:22.254Z,9.13
2023-02-18T05:25:53.083Z,9.08
2023-02-18T05:28:24.373Z,9.04
2023-02-18T05:30:55.315Z,8.99
2023-02-18T05:33:26.312Z,8.95
2023-02-18T05:35:57.245Z,8.95
2023-02-18T05:38:28.048Z,8.94
2023-02-18T05:41:01.896Z,8.91
2023-02-18T05:43:52.693Z,8.89
2023-02-18T05:46:23.660Z,8.84
2023-02-18T05:48:55.188Z,8.78
2023-02-18T05:51:26.535Z,8.72
2023-02-18T05:53:57.877Z,8.62
2023-02-18T05:56:29.755Z,8.53
2023-02-18T05:59:00.727Z,8.39
2023-02-18T06:01:31.513Z,8.40
2023-02-18T06:04:02.386Z,8.43
2023-02-18T06:06:33.485Z,8.45
2023-02-18T06:09:05.071Z,8.48
2023-02-18T06:11:36.283Z,8.51
2023-02-18T06:14:07.222Z,8.52
2023-02-18T06:16:38.370Z,8.55
2023-02-18T06:19:09.606Z,8.57
2023-02-18T06:21:40.955Z,8.56
2023-02-18T06:24:11.838Z,8.50
2023-02-18T06:26:42.996Z,8.42
2023-02-18T06:29:13.771Z,8.31
2023-02-18T06:31:44.655Z,8.29
2023-02-18T06:34:15.995Z,8.27
2023-02-18T06:36:46.887Z,8.29
2023-02-18T06:39:17.520Z,8.32
2023-02-18T06:41:48.532Z,8.26
2023-02-18T06:44:19.390Z,8.28
2023-02-18T06:46:50.265Z,8.32
2023-02-18T06:49:21.272Z,8.30
2023-02-18T06:51:52.234Z,8.31
2023-02-18T06:54:22.982Z,8.35
2023-02-18T06:56:54.076Z,8.37
2023-02-18T06:59:25.072Z,8.42
2023-02-18T07:01:56.170Z,8.48
2023-02-18T07:04:27.003Z,8.49
2023-02-18T07:06:57.968Z,8.58
2023-02-18T07:09:28.946Z,8.64
2023-02-18T07:12:00.138Z,8.72
2023-02-18T07:14:31.075Z,8.79
2023-02-18T07:17:02.648Z,8.85
2023-02-18T07:19:33.568Z,8.91
2023-02-18T07:22:04.620Z,8.99
2023-02-18T07:24:35.374Z,9.07
2023-02-18T07:27:06.528Z,9.16
2023-02-18T07:29:37.604Z,9.16
2023-02-18T07:32:08.727Z,9.18
2023-02-18T07:34:39.590Z,9.23
2023-02-18T07:37:10.436Z,9.29
2023-02-18T07:39:43.245Z,9.31
2023-02-18T07:42:14.378Z,9.29
2023-02-18T07:44:45.283Z,9.31
2023-02-18T07:47:19.797Z,9.31
2023-02-18T07:49:50.648Z,9.34
2023-02-18T07:52:21.303Z,9.34
2023-02-18T07:54:52.392Z,9.36
2023-02-18T07:57:25.349Z,9.32
2023-02-18T07:59:56.346Z,9.32
2023-02-18T08:02:27.307Z,9.28
2023-02-18T08:04:58.247Z,9.28
2023-02-18T08:07:29.574Z,9.34
2023-02-18T08:10:00.802Z,9.38
2023-02-18T08:12:31.741Z,9.32
2023-02-18T08:15:02.486Z,9.30
2023-02-18T08:17:33.419Z,9.30
2023-02-18T08:20:04.601Z,9.31
2023-02-18T08:22:35.718Z,9.32
2023-02-18T08:25:08.342Z,9.29
2023-02-18T08:27:39.980Z,9.36
2023-02-18T08:30:11.719Z,9.35
2023-02-18T08:32:43.240Z,9.38
2023-02-18T08:35:14.495Z,9.39
2023-02-18T08:37:53.120Z,9.42
2023-02-18T08:40:25.244Z,9.40
2023-02-18T08:42:56.124Z,9.48
2023-02-18T08:45:27.405Z,9.49
2023-02-18T08:48:19.231Z,9.48
2023-02-18T08:50:49.401Z,9.50
2023-02-18T08:53:20.430Z,9.48
2023-02-18T08:55:51.249Z,9.48
2023-02-18T08:58:23.291Z,9.56
2023-02-18T09:00:54.040Z,9.61
2023-02-18T09:03:25.110Z,9.61
2023-02-18T09:05:56.474Z,9.59
2023-02-18T09:08:27.502Z,9.60
2023-02-18T09:10:59.255Z,9.64
2023-02-18T09:13:30.105Z,9.65
2023-02-18T09:16:03.892Z,9.65
2023-02-18T09:18:35.613Z,9.64
2023-02-18T09:21:08.248Z,9.63
2023-02-18T09:23:40.109Z,9.62
2023-02-18T09:26:12.400Z,9.68
2023-02-18T09:28:43.969Z,9.66
2023-02-18T09:31:18.290Z,9.65
2023-02-18T09:33:50.941Z,9.74
2023-02-18T09:36:22.365Z,9.71
2023-02-18T09:38:53.294Z,9.72
2023-02-18T09:41:29.300Z,9.72
2023-02-18T09:44:02.108Z,9.73
2023-02-18T09:46:34.628Z,9.73
2023-02-18T09:49:08.521Z,9.81
2023-02-18T09:51:39.903Z,9.82
2023-02-18T09:54:12.571Z,9.89
2023-02-18T09:56:44.712Z,9.92
2023-02-18T09:59:17.503Z,9.97
2023-02-18T10:01:50.161Z,9.82
2023-02-18T10:04:24.480Z,9.75
2023-02-18T10:06:58.128Z,9.73
2023-02-18T10:09:31.477Z,9.74
2023-02-18T10:12:07.387Z,9.78
2023-02-18T10:14:38.172Z,9.77
2023-02-18T10:17:10.237Z,9.80
2023-02-18T10:19:42.241Z,9.93
2023-02-18T10:22:15.050Z,9.98
2023-02-18T10:24:49.582Z,9.94
2023-02-18T10:27:23.287Z,10.00
2023-02-18T10:29:54.252Z,10.12
2023-02-18T10:32:26.271Z,10.11
2023-02-18T10:35:01.309Z,10.14
2023-02-18T10:37:42.263Z,10.04
2023-02-18T10:40:15.670Z,10.03
2023-02-18T10:42:50.511Z,9.95
2023-02-18T10:45:26.254Z,9.87
2023-02-18T10:48:05.147Z,9.90
2023-02-18T10:50:38.372Z,9.86
2023-02-18T10:53:12.883Z,9.87
2023-02-18T10:55:44.487Z,9.80
2023-02-18T10:58:28.631Z,9.71
2023-02-18T11:01:00.410Z,9.64
2023-02-18T11:03:40.195Z,9.54
2023-02-18T11:06:18.917Z,9.49
2023-02-18T11:08:51.179Z,9.48
2023-02-18T11:11:25.335Z,9.50
2023-02-18T11:13:57.187Z,9.50
2023-02-18T11:16:37.661Z,9.46
2023-02-18T11:19:30.656Z,9.46
2023-02-18T11:22:08.092Z,9.48
2023-02-18T11:24:40.813Z,9.41
2023-02-18T11:27:14.676Z,9.37
2023-02-18T11:29:45.621Z,9.36
2023-02-18T11:32:17.193Z,9.38
2023-02-18T11:34:48.928Z,9.38
2023-02-18T11:37:21.779Z,9.27
2023-02-18T11:39:54.332Z,9.24
2023-02-18T11:42:26.976Z,9.21
2023-02-18T11:44:58.532Z,9.18
2023-02-18T11:47:32.536Z,9.11
2023-02-18T11:50:16.940Z,8.99
2023-02-18T11:52:49.472Z,8.80
2023-02-18T11:55:21.850Z,8.76
2023-02-18T11:57:56.297Z,10.18
2023-02-18T12:00:38.630Z,10.05
2023-02-18T12:03:15.202Z,9.21
2023-02-18T12:05:46.526Z,9.70
2023-02-18T12:08:20.179Z,10.49
2023-02-18T12:10:52.630Z,9.68
2023-02-18T12:13:27.367Z,10.22
2023-02-18T12:16:05.483Z,10.91
2023-02-18T12:18:42.875Z,9.93
2023-02-18T12:21:28.155Z,11.14
2023-02-18T12:24:04.427Z,11.08
2023-02-18T12:26:40.059Z,10.21
2023-02-18T12:29:21.756Z,11.54
2023-02-18T12:32:06.675Z,10.66
2023-02-18T12:34:45.082Z,10.83
2023-02-18T12:37:33.182Z,11.51
2023-02-18T12:40:09.234Z,10.34
2023-02-18T12:42:46.553Z,10.53
2023-02-18T12:45:33.272Z,11.42
2023-02-18T12:48:20.469Z,10.29
2023-02-18T12:50:58.597Z,10.68
2023-02-18T12:53:47.450Z,11.19
2023-02-18T12:56:31.660Z,10.24
2023-02-18T12:59:06.447Z,11.29
2023-02-18T13:01:40.114Z,11.28
2023-02-18T13:04:09.239Z,10.62
2023-02-18T13:24:52.837Z,11.60
2023-02-18T13:27:26.438Z,10.74
2023-02-18T13:30:00.333Z,12.16
2023-02-18T13:32:33.084Z,11.79
2023-02-18T13:35:07.498Z,10.79
2023-02-18T13:37:45.027Z,11.46
2023-02-18T13:40:16.942Z,12.94
2023-02-18T13:42:47.663Z,12.06
2023-02-18T13:45:29.384Z,10.96
2023-02-18T13:48:00.626Z,11.94
2023-02-18T13:50:33.051Z,12.38
2023-02-18T13:53:23.526Z,11.08
2023-02-18T13:55:56.256Z,11.67
2023-02-18T13:58:30.451Z,12.39
2023-02-18T14:01:03.627Z,11.03
2023-02-18T14:03:38.259Z,11.46
2023-02-18T14:06:20.047Z,12.35
2023-02-18T14:09:03.567Z,10.98
2023-02-18T14:11:40.865Z,11.87
2023-02-18T14:14:31.198Z,12.50
2023-02-18T14:17:34.238Z,12.30
2023-02-18T14:20:22.470Z,11.20
2023-02-18T14:22:53.698Z,12.12
2023-02-18T14:25:33.264Z,12.04
2023-02-18T14:28:05.458Z,11.27
2023-02-18T14:30:39.828Z,11.54
2023-02-18T14:33:16.764Z,12.08
2023-02-18T14:35:51.133Z,12.66
2023-02-18T14:38:27.774Z,12.49
2023-02-18T14:41:06.621Z,11.16
2023-02-18T14:43:48.728Z,11.69
2023-02-18T14:46:27.546Z,11.68
2023-02-18T14:49:14.436Z,12.49
2023-02-18T14:51:48.482Z,12.56
2023-02-18T14:54:21.115Z,12.80
2023-02-18T14:56:55.790Z,13.30
2023-02-18T14:59:27.865Z,11.70
2023-02-18T15:01:59.404Z,11.22
2023-02-18T15:04:31.256Z,11.88
2023-02-18T15:07:03.432Z,12.30
2023-02-18T15:09:34.509Z,12.40
2023-02-18T15:12:06.911Z,12.30
2023-02-18T15:14:39.828Z,13.39
2023-02-18T15:17:16.085Z,11.91
2023-02-18T15:19:50.569Z,11.54
2023-02-18T15:22:22.875Z,12.53
2023-02-18T15:24:55.357Z,12.87
2023-02-18T15:27:28.067Z,13.05
2023-02-18T15:30:00.574Z,13.34
2023-02-18T15:32:33.994Z,13.29
2023-02-18T15:35:16.097Z,13.27
2023-02-18T15:37:48.156Z,12.86
2023-02-18T15:40:19.729Z,12.84
2023-02-18T15:42:52.106Z,12.80
2023-02-18T15:45:24.094Z,13.13
2023-02-18T15:47:56.666Z,13.50
2023-02-18T15:50:29.102Z,13.09
2023-02-18T15:53:01.982Z,13.24
2023-02-18T15:55:35.159Z,13.58
2023-02-18T15:58:07.057Z,13.54
2023-02-18T16:00:40.618Z,13.56
2023-02-18T16:03:14.339Z,12.01
2023-02-18T16:05:43.850Z,12.05
2023-02-18T16:08:16.870Z,12.28
2023-02-18T16:10:50.533Z,12.45
2023-02-18T16:13:21.876Z,12.94
2023-02-18T16:15:53.936Z,13.32
2023-02-18T16:18:26.830Z,12.74
2023-02-18T16:20:59.750Z,12.88
2023-02-18T16:23:36.541Z,12.97
2023-02-18T16:26:28.426Z,13.05
2023-02-18T16:29:06.171Z,13.60
2023-02-18T16:31:37.195Z,12.95
2023-02-18T16:34:08.553Z,11.74
2023-02-18T16:36:59.197Z,11.87
2023-02-18T16:39:32.408Z,12.52
2023-02-18T16:42:03.422Z,12.37
2023-02-18T16:44:35.185Z,13.29
2023-02-18T16:47:06.369Z,13.71
2023-02-18T16:49:37.579Z,13.36
2023-02-18T16:52:10.664Z,13.30
2023-02-18T16:54:41.601Z,12.71
2023-02-18T16:57:12.658Z,11.64
2023-02-18T16:59:44.223Z,12.69
2023-02-18T17:02:19.155Z,13.43
2023-02-18T17:04:54.821Z,13.12
2023-02-18T17:07:25.503Z,13.81
2023-02-18T17:09:56.910Z,13.91
2023-02-18T17:12:27.585Z,14.20
2023-02-18T17:14:58.929Z,14.19
2023-02-18T17:17:30.422Z,14.09
2023-02-18T17:20:01.642Z,14.07
2023-02-18T17:22:32.510Z,14.15
2023-02-18T17:25:03.919Z,14.47
2023-02-18T17:27:34.642Z,14.44
2023-02-18T17:30:06.242Z,14.31
2023-02-18T17:32:37.141Z,14.20
2023-02-18T17:35:08.846Z,14.49
2023-02-18T17:37:39.732Z,14.41
2023-02-18T17:40:14.266Z,15.34
2023-02-18T17:42:45.085Z,14.37
2023-02-18T17:45:20.298Z,15.24
2023-02-18T17:47:51.368Z,14.63
2023-02-18T17:50:22.343Z,14.88
2023-02-18T17:52:53.513Z,15.38
2023-02-18T17:55:25.719Z,14.94
2023-02-18T17:57:56.414Z,15.08
2023-02-18T18:00:29.029Z,15.56
2023-02-18T18:03:00.312Z,15.99
2023-02-18T18:05:33.303Z,15.74
2023-02-18T18:08:04.757Z,16.08
2023-02-18T18:10:37.484Z,15.42
2023-02-18T18:13:09.551Z,15.20
2023-02-18T18:15:42.858Z,15.23
2023-02-18T18:18:14.807Z,15.56
2023-02-18T18:20:47.031Z,15.55
2023-02-18T18:23:19.437Z,15.80
2023-02-18T18:25:51.914Z,15.48
2023-02-18T18:28:22.756Z,15.90
2023-02-18T18:30:55.501Z,15.07
2023-02-18T18:33:27.197Z,15.31
2023-02-18T18:35:59.427Z,15.53
2023-02-18T18:38:30.608Z,15.56
2023-02-18T18:41:03.264Z,15.16
2023-02-18T18:43:35.868Z,15.26
2023-02-18T18:46:07.230Z,15.52
2023-02-18T18:48:38.534Z,15.27
2023-02-18T18:51:16.168Z,15.28
2023-02-18T18:53:47.657Z,15.67
2023-02-18T18:56:18.961Z,15.77
2023-02-18T18:58:49.996Z,15.08
2023-02-18T19:01:23.406Z,14.48
2023-02-18T19:03:52.689Z,15.44
2023-02-18T19:06:23.830Z,15.62
2023-02-18T19:08:55.176Z,15.78
2023-02-18T19:11:26.535Z,15.86
2023-02-18T19:13:57.461Z,15.76
2023-02-18T19:16:30.850Z,15.96
2023-02-18T19:19:04.440Z,15.82
2023-02-18T19:21:36.256Z,15.56
2023-02-18T19:24:07.157Z,15.83
2023-02-18T19:26:39.324Z,15.41
2023-02-18T19:29:09.844Z,15.78
2023-02-18T19:31:41.156Z,14.50
2023-02-18T19:34:12.068Z,14.29
2023-02-18T19:36:45.474Z,15.00
2023-02-18T19:39:16.319Z,15.40
2023-02-18T19:41:47.707Z,14.12
2023-02-18T19:44:18.299Z,14.43
2023-02-18T19:46:49.480Z,14.63
2023-02-18T19:49:20.008Z,15.31
2023-02-18T19:51:51.866Z,13.79
2023-02-18T19:54:22.702Z,14.05
2023-02-18T19:56:53.993Z,14.19
2023-02-18T19:59:25.043Z,14.81
2023-02-18T20:01:56.390Z,14.63
2023-02-18T20:04:27.375Z,13.66
2023-02-18T20:06:58.942Z,14.73
2023-02-18T20:09:29.882Z,13.36
2023-02-18T20:12:00.916Z,13.58
2023-02-18T20:14:31.908Z,14.36
2023-02-18T20:17:03.101Z,13.51
2023-02-18T20:19:35.362Z,14.59
2023-02-18T20:22:07.942Z,13.09
2023-02-18T20:24:40.292Z,14.03
2023-02-18T20:27:11.859Z,13.95
2023-02-18T20:29:42.897Z,13.05
2023-02-18T20:32:15.506Z,14.35
2023-02-18T20:34:48.144Z,14.06
2023-02-18T20:37:19.354Z,13.60
2023-02-18T20:39:50.030Z,14.32
2023-02-18T20:42:21.336Z,13.54
2023-02-18T20:44:52.732Z,13.52
2023-02-18T20:47:24.116Z,14.51
2023-02-18T20:49:55.007Z,13.58
2023-02-18T20:52:26.370Z,14.23
2023-02-18T20:54:57.918Z,14.54
2023-02-18T20:57:29.127Z,15.02
2023-02-18T21:00:00.004Z,13.92
2023-02-18T21:02:31.763Z,14.49
2023-02-18T21:05:03.448Z,14.99
2023-02-18T21:07:35.037Z,14.50
2023-02-18T21:10:06.799Z,14.29
2023-02-18T21:12:37.797Z,14.86
2023-02-18T21:15:09.220Z,15.27
2023-02-18T21:17:40.573Z,14.69
2023-02-18T21:20:11.966Z,14.48
2023-02-18T21:22:43.264Z,14.79
2023-02-18T21:25:14.694Z,14.19
2023-02-18T21:27:46.001Z,14.38
2023-02-18T21:30:16.814Z,14.26
2023-02-18T21:32:48.033Z,14.04
2023-02-18T21:35:18.853Z,14.05
2023-02-18T21:37:50.320Z,13.06
2023-02-18T21:40:21.648Z,13.36
2023-02-18T21:42:52.721Z,14.53
2023-02-18T21:45:23.418Z,14.11
2023-02-18T21:47:54.416Z,13.29
2023-02-18T21:50:26.669Z,13.92
2023-02-18T21:53:01.054Z,14.62
2023-02-18T21:55:32.161Z,14.02
2023-02-18T21:58:03.130Z,13.38
2023-02-18T22:00:33.675Z,14.25
2023-02-18T22:03:04.924Z,13.44
2023-02-18T22:05:35.864Z,14.41
2023-02-18T22:08:06.882Z,14.50
2023-02-18T22:10:39.709Z,14.60
2023-02-18T22:13:10.603Z,14.58
2023-02-18T22:15:42.120Z,13.42
2023-02-18T22:18:13.179Z,13.83
2023-02-18T22:20:43.835Z,14.43
2023-02-18T22:23:14.990Z,13.01
2023-02-18T22:25:45.812Z,14.00
2023-02-18T22:28:17.560Z,13.46
2023-02-18T22:30:48.503Z,13.06
2023-02-18T22:33:20.212Z,14.24
2023-02-18T22:35:51.398Z,13.27
2023-02-18T22:38:22.811Z,13.08
2023-02-18T22:40:53.375Z,14.01
2023-02-18T22:43:24.621Z,14.23
2023-02-18T22:45:55.311Z,13.32
2023-02-18T22:48:26.811Z,13.10
2023-02-18T22:50:57.434Z,13.92
2023-02-18T22:53:28.621Z,13.79
2023-02-18T22:56:01.569Z,14.14
2023-02-18T22:58:32.401Z,12.45
2023-02-18T23:01:03.334Z,13.48
2023-02-18T23:03:34.090Z,14.06
2023-02-18T23:06:05.821Z,12.14
2023-02-18T23:08:36.528Z,13.14
2023-02-18T23:11:09.066Z,14.09
2023-02-18T23:13:40.442Z,14.43
2023-02-18T23:16:13.410Z,13.74
2023-02-18T23:18:44.311Z,12.49
2023-02-18T23:21:21.792Z,13.58
2023-02-18T23:23:54.273Z,14.31
2023-02-18T23:26:25.840Z,13.09
2023-02-18T23:28:57.171Z,13.23
2023-02-18T23:31:28.829Z,13.56
2023-02-18T23:34:00.793Z,14.20
2023-02-18T23:36:32.550Z,13.53
2023-02-18T23:39:05.478Z,12.63
2023-02-18T23:41:36.719Z,13.54
2023-02-18T23:44:08.690Z,13.54
2023-02-18T23:46:39.636Z,13.46
2023-02-18T23:49:12.880Z,13.65
2023-02-18T23:51:43.936Z,14.50
2023-02-18T23:54:14.758Z,13.02
2023-02-18T23:56:45.809Z,13.47
2023-02-18T23:59:16.927Z,14.21
